createdAt,value
2016-12-23T00:00:08.078Z,6.69
2016-12-23T00:01:08.368Z,6.72
2016-12-23T00:02:08.037Z,6.62
2016-12-23T00:03:08.367Z,6.62
2016-12-23T00:04:08.008Z,6.63
2016-12-23T00:05:07.984Z,6.71
2016-12-23T00:06:07.964Z,6.66
2016-12-23T00:07:07.948Z,6.76
2016-12-23T00:08:08.245Z,6.76
2016-12-23T00:09:08.228Z,6.72
2016-12-23T00:10:07.892Z,6.73
2016-12-23T00:11:07.873Z,6.73
2016-12-23T00:12:07.856Z,6.68
2016-12-23T00:13:07.837Z,6.69
2016-12-23T00:14:07.814Z,6.79
2016-12-23T00:15:07.806Z,6.73
2016-12-23T00:16:07.804Z,6.69
2016-12-23T00:17:07.764Z,6.69
2016-12-23T00:18:07.744Z,6.76
2016-12-23T00:19:07.728Z,6.76
2016-12-23T00:20:07.710Z,6.66
2016-12-23T00:21:07.690Z,6.72
2016-12-23T00:22:07.678Z,6.68
2016-12-23T00:23:07.653Z,6.71
2016-12-23T00:24:07.639Z,6.79
2016-12-23T00:25:07.666Z,6.66
2016-12-23T00:26:07.596Z,6.77
2016-12-23T00:27:07.578Z,6.76
2016-12-23T00:28:07.555Z,6.69
2016-12-23T00:29:07.535Z,6.71
2016-12-23T00:30:07.825Z,6.69
2016-12-23T00:31:07.503Z,6.68
2016-12-23T00:32:07.793Z,6.76
2016-12-23T00:33:07.466Z,6.77
2016-12-23T00:34:07.453Z,6.79
2016-12-23T00:35:07.737Z,6.79
2016-12-23T00:36:07.434Z,6.66
2016-12-23T00:37:07.704Z,6.71
2016-12-23T00:38:07.367Z,6.79
2016-12-23T00:39:07.352Z,6.76
2016-12-23T00:40:07.436Z,6.72
2016-12-23T00:41:07.346Z,6.76
2016-12-23T00:42:07.299Z,6.71
2016-12-23T00:43:07.622Z,6.8
2016-12-23T00:44:07.256Z,6.76
2016-12-23T00:45:07.241Z,6.72
2016-12-23T00:46:07.222Z,6.8
2016-12-23T00:47:07.202Z,6.69
2016-12-23T00:48:07.808Z,6.76
2016-12-23T00:49:07.166Z,6.72
2016-12-23T00:50:07.153Z,6.72
2016-12-23T00:51:07.128Z,6.76
2016-12-23T00:52:07.114Z,6.71
2016-12-23T00:53:07.090Z,6.68
2016-12-23T00:54:07.073Z,6.77
2016-12-23T00:55:07.524Z,6.76
2016-12-23T00:56:07.038Z,6.77
2016-12-23T00:57:07.023Z,6.8
2016-12-23T00:58:06.997Z,6.71
2016-12-23T00:59:07.006Z,6.77
2016-12-23T01:00:06.966Z,6.71
2016-12-23T01:01:06.942Z,6.71
2016-12-23T01:02:06.925Z,6.66
2016-12-23T01:03:06.905Z,6.63
2016-12-23T01:04:06.898Z,6.68
2016-12-23T01:05:06.868Z,6.62
2016-12-23T01:06:06.850Z,6.62
2016-12-23T01:07:07.142Z,6.59
2016-12-23T01:08:06.814Z,6.5
2016-12-23T01:09:06.795Z,6.51
2016-12-23T01:10:06.777Z,6.48
2016-12-23T01:11:06.803Z,6.51
2016-12-23T01:12:06.740Z,6.4
2016-12-23T01:13:07.034Z,6.46
2016-12-23T01:14:06.711Z,6.26
2016-12-23T01:15:06.686Z,6.35
2016-12-23T01:16:06.761Z,6.33
2016-12-23T01:17:06.648Z,6.33
2016-12-23T01:18:06.626Z,6.32
2016-12-23T01:19:06.917Z,6.38
2016-12-23T01:20:06.902Z,6.32
2016-12-23T01:21:06.584Z,6.3
2016-12-23T01:22:06.860Z,6.38
2016-12-23T01:23:06.530Z,6.3
2016-12-23T01:24:06.513Z,6.38
2016-12-23T01:25:07.122Z,6.38
2016-12-23T01:26:06.472Z,6.33
2016-12-23T01:27:06.456Z,6.3
2016-12-23T01:28:06.436Z,6.41
2016-12-23T01:29:06.414Z,6.32
2016-12-23T01:30:06.400Z,6.3
2016-12-23T01:31:06.378Z,6.28
2016-12-23T01:32:06.678Z,6.25
2016-12-23T01:33:06.342Z,6.26
2016-12-23T01:34:06.324Z,6.26
2016-12-23T01:35:06.309Z,6.38
2016-12-23T01:36:06.599Z,6.33
2016-12-23T01:37:06.266Z,6.36
2016-12-23T01:38:06.250Z,6.36
2016-12-23T01:39:06.542Z,6.33
2016-12-23T01:40:06.209Z,6.33
2016-12-23T01:41:06.192Z,6.32
2016-12-23T01:42:06.486Z,6.32
2016-12-23T01:43:06.153Z,6.36
2016-12-23T01:44:06.138Z,6.32
2016-12-23T01:45:06.121Z,6.3
2016-12-23T01:46:06.106Z,6.3
2016-12-23T01:47:06.395Z,6.32
2016-12-23T01:48:06.381Z,6.41
2016-12-23T01:49:06.353Z,6.43
2016-12-23T01:50:06.024Z,6.4
2016-12-23T01:51:06.321Z,6.41
2016-12-23T01:52:05.984Z,6.46
2016-12-23T01:53:05.971Z,6.44
2016-12-23T01:54:05.978Z,6.32
2016-12-23T01:55:05.938Z,6.29
2016-12-23T01:56:05.913Z,6.4
2016-12-23T01:57:05.997Z,6.35
2016-12-23T01:58:05.878Z,6.4
2016-12-23T01:59:05.860Z,6.36
2016-12-23T02:00:06.193Z,6.33
2016-12-23T02:01:05.823Z,6.3
2016-12-23T02:02:05.796Z,6.33
2016-12-23T02:03:05.785Z,6.38
2016-12-23T02:04:06.100Z,6.38
2016-12-23T02:05:05.757Z,6.47
2016-12-23T02:06:05.727Z,6.32
2016-12-23T02:07:06.390Z,6.36
2016-12-23T02:08:05.692Z,6.33
2016-12-23T02:09:05.683Z,6.3
2016-12-23T02:10:05.653Z,6.33
2016-12-23T02:11:05.632Z,6.28
2016-12-23T02:12:05.617Z,6.29
2016-12-23T02:13:05.909Z,6.33
2016-12-23T02:14:05.889Z,6.25
2016-12-23T02:15:05.558Z,6.32
2016-12-23T02:16:05.539Z,6.29
2016-12-23T02:17:05.837Z,6.25
2016-12-23T02:18:05.814Z,6.18
2016-12-23T02:19:05.798Z,6.21
2016-12-23T02:20:05.465Z,6.26
2016-12-23T02:21:05.450Z,6.25
2016-12-23T02:22:05.427Z,6.21
2016-12-23T02:23:05.405Z,6.25
2016-12-23T02:24:05.388Z,6.21
2016-12-23T02:25:05.680Z,6.13
2016-12-23T02:26:05.351Z,6.11
2016-12-23T02:27:05.650Z,6.16
2016-12-23T02:28:05.313Z,6.07
2016-12-23T02:29:05.297Z,6.11
2016-12-23T02:30:05.478Z,6.09
2016-12-23T02:31:05.577Z,6.06
2016-12-23T02:32:05.237Z,6.07
2016-12-23T02:33:05.219Z,6.09
2016-12-23T02:34:05.202Z,6.06
2016-12-23T02:35:05.179Z,5.98
2016-12-23T02:36:05.478Z,6.03
2016-12-23T02:37:05.460Z,5.92
2016-12-23T02:38:05.123Z,5.91
2016-12-23T02:39:05.104Z,5.95
2016-12-23T02:40:05.089Z,5.93
2016-12-23T02:41:05.064Z,5.82
2016-12-23T02:42:05.372Z,6.03
2016-12-23T02:43:05.343Z,5.93
2016-12-23T02:44:05.017Z,5.93
2016-12-23T02:45:04.991Z,5.91
2016-12-23T02:46:04.970Z,5.88
2016-12-23T02:47:04.956Z,5.89
2016-12-23T02:48:05.250Z,5.91
2016-12-23T02:49:04.920Z,5.86
2016-12-23T02:50:04.898Z,5.85
2016-12-23T02:51:04.880Z,5.74
2016-12-23T02:52:04.863Z,5.88
2016-12-23T02:53:04.887Z,5.81
2016-12-23T02:54:04.817Z,5.81
2016-12-23T02:55:04.800Z,5.75
2016-12-23T02:56:05.092Z,5.73
2016-12-23T02:57:04.764Z,5.71
2016-12-23T02:58:05.054Z,5.74
2016-12-23T02:59:04.727Z,5.73
2016-12-23T03:00:04.712Z,5.63
2016-12-23T03:01:04.686Z,5.71
2016-12-23T03:02:04.665Z,5.66
2016-12-23T03:03:04.654Z,5.71
2016-12-23T03:04:04.938Z,5.74
2016-12-23T03:05:04.921Z,5.66
2016-12-23T03:06:04.594Z,5.71
2016-12-23T03:07:04.563Z,5.71
2016-12-23T03:08:04.562Z,5.67
2016-12-23T03:09:04.843Z,5.67
2016-12-23T03:10:04.518Z,5.7
2016-12-23T03:11:04.806Z,5.73
2016-12-23T03:12:04.469Z,5.68
2016-12-23T03:13:04.454Z,5.6
2016-12-23T03:14:04.761Z,5.71
2016-12-23T03:15:04.412Z,5.71
2016-12-23T03:16:04.393Z,5.67
2016-12-23T03:17:04.392Z,5.63
2016-12-23T03:18:04.355Z,5.67
2016-12-23T03:19:04.334Z,5.71
2016-12-23T03:20:04.316Z,5.78
2016-12-23T03:21:04.293Z,5.67
2016-12-23T03:22:04.273Z,5.73
2016-12-23T03:23:04.256Z,5.77
2016-12-23T03:24:04.257Z,5.67
2016-12-23T03:25:04.220Z,5.71
2016-12-23T03:26:04.195Z,5.63
2016-12-23T03:27:04.177Z,5.68
2016-12-23T03:28:04.155Z,5.64
2016-12-23T03:29:04.148Z,5.71
2016-12-23T03:30:04.435Z,5.59
2016-12-23T03:31:04.099Z,5.68
2016-12-23T03:32:04.080Z,5.66
2016-12-23T03:33:04.059Z,5.73
2016-12-23T03:34:04.039Z,5.68
2016-12-23T03:35:04.022Z,5.77
2016-12-23T03:36:04.003Z,5.66
2016-12-23T03:37:03.984Z,5.68
2016-12-23T03:38:04.275Z,5.63
2016-12-23T03:39:04.250Z,5.67
2016-12-23T03:40:03.917Z,5.71
2016-12-23T03:41:03.942Z,5.68
2016-12-23T03:42:03.885Z,5.59
2016-12-23T03:43:03.860Z,5.63
2016-12-23T03:44:03.847Z,5.57
2016-12-23T03:45:03.834Z,5.68
2016-12-23T03:46:03.832Z,5.56
2016-12-23T03:47:03.788Z,5.63
2016-12-23T03:48:03.766Z,5.66
2016-12-23T03:49:04.056Z,5.59
2016-12-23T03:50:04.039Z,5.53
2016-12-23T03:51:03.705Z,5.64
2016-12-23T03:52:03.685Z,5.6
2016-12-23T03:53:03.665Z,5.55
2016-12-23T03:54:03.696Z,5.53
2016-12-23T03:55:03.628Z,5.55
2016-12-23T03:56:03.608Z,5.55
2016-12-23T03:57:03.588Z,5.59
2016-12-23T03:58:03.564Z,5.52
2016-12-23T03:59:03.859Z,5.57
2016-12-23T04:00:03.524Z,5.6
2016-12-23T04:01:03.505Z,5.55
2016-12-23T04:02:03.829Z,5.48
2016-12-23T04:03:03.486Z,5.53
2016-12-23T04:04:03.468Z,5.49
2016-12-23T04:05:03.433Z,5.45
2016-12-23T04:06:03.423Z,5.43
2016-12-23T04:07:03.387Z,5.41
2016-12-23T04:08:03.681Z,5.38
2016-12-23T04:09:03.347Z,5.45
2016-12-23T04:10:03.336Z,5.38
2016-12-23T04:11:03.632Z,5.41
2016-12-23T04:12:03.607Z,5.46
2016-12-23T04:13:03.273Z,5.5
2016-12-23T04:14:03.255Z,5.49
2016-12-23T04:15:03.238Z,5.46
2016-12-23T04:16:03.207Z,5.38
2016-12-23T04:17:03.196Z,5.43
2016-12-23T04:18:03.172Z,5.48
2016-12-23T04:19:03.475Z,5.49
2016-12-23T04:20:03.134Z,5.31
2016-12-23T04:21:03.430Z,5.27
2016-12-23T04:22:03.093Z,5.34
2016-12-23T04:23:03.080Z,5.32
2016-12-23T04:24:03.061Z,5.27
2016-12-23T04:25:03.032Z,5.27
2016-12-23T04:26:03.328Z,5.2
2016-12-23T04:27:02.999Z,5.17
2016-12-23T04:28:02.979Z,5.25
2016-12-23T04:29:02.957Z,5.16
2016-12-23T04:30:03.139Z,5.13
2016-12-23T04:31:03.259Z,5.13
2016-12-23T04:32:02.894Z,5.19
2016-12-23T04:33:02.878Z,5.17
2016-12-23T04:34:02.858Z,5.13
2016-12-23T04:35:02.839Z,5.14
2016-12-23T04:36:02.821Z,5.13
2016-12-23T04:37:02.797Z,5.12
2016-12-23T04:38:02.777Z,5.07
2016-12-23T04:39:02.762Z,5.07
2016-12-23T04:40:02.740Z,5.02
2016-12-23T04:41:02.718Z,5.05
2016-12-23T04:42:02.699Z,5.05
2016-12-23T04:43:02.681Z,5.01
2016-12-23T04:44:02.653Z,5.04
2016-12-23T04:45:02.639Z,5.05
2016-12-23T04:46:02.630Z,5.1
2016-12-23T04:47:02.917Z,5.12
2016-12-23T04:48:02.581Z,5.12
2016-12-23T04:49:02.559Z,5.04
2016-12-23T04:50:02.540Z,5.02
2016-12-23T04:51:02.521Z,5.12
2016-12-23T04:52:02.501Z,5.14
2016-12-23T04:53:02.483Z,5.1
2016-12-23T04:54:02.459Z,5.13
2016-12-23T04:55:03.067Z,5.12
2016-12-23T04:56:02.419Z,5.13
2016-12-23T04:57:02.716Z,5.12
2016-12-23T04:58:02.377Z,5.14
2016-12-23T04:59:02.360Z,5.17
2016-12-23T05:00:02.339Z,5.27
2016-12-23T05:01:02.324Z,5.28
2016-12-23T05:02:02.303Z,5.3
2016-12-23T05:03:02.612Z,5.3
2016-12-23T05:04:02.259Z,5.31
2016-12-23T05:05:02.242Z,5.35
2016-12-23T05:06:02.218Z,5.31
2016-12-23T05:07:02.200Z,5.35
2016-12-23T05:08:02.187Z,5.37
2016-12-23T05:09:02.485Z,5.49
2016-12-23T05:10:02.144Z,5.41
2016-12-23T05:11:02.136Z,5.49
2016-12-23T05:12:02.106Z,5.49
2016-12-23T05:13:02.089Z,5.48
2016-12-23T05:14:02.068Z,5.38
2016-12-23T05:15:02.046Z,5.41
2016-12-23T05:16:02.033Z,5.48
2016-12-23T05:17:02.008Z,5.48
2016-12-23T05:18:02.302Z,5.59
2016-12-23T05:19:01.966Z,5.55
2016-12-23T05:20:01.952Z,5.5
2016-12-23T05:21:01.926Z,5.55
2016-12-23T05:22:01.915Z,5.57
2016-12-23T05:23:01.891Z,5.55
2016-12-23T05:24:01.869Z,5.56
2016-12-23T05:25:01.854Z,5.53
2016-12-23T05:26:01.833Z,5.59
2016-12-23T05:27:01.811Z,5.55
2016-12-23T05:28:02.104Z,5.59
2016-12-23T05:29:01.775Z,5.56
2016-12-23T05:30:01.766Z,5.59
2016-12-23T05:31:02.082Z,5.66
2016-12-23T05:32:02.025Z,5.63
2016-12-23T05:33:01.695Z,5.59
2016-12-23T05:34:01.674Z,5.63
2016-12-23T05:35:01.656Z,5.63
2016-12-23T05:36:01.640Z,5.6
2016-12-23T05:37:01.620Z,5.57
2016-12-23T05:38:01.596Z,5.57
2016-12-23T05:39:01.575Z,5.57
2016-12-23T05:40:01.565Z,5.6
2016-12-23T05:41:01.538Z,5.66
2016-12-23T05:42:01.518Z,5.56
2016-12-23T05:43:01.499Z,5.53
2016-12-23T05:44:01.791Z,5.59
2016-12-23T05:45:01.463Z,5.63
2016-12-23T05:46:01.438Z,5.56
2016-12-23T05:47:01.420Z,5.56
2016-12-23T05:48:01.417Z,5.53
2016-12-23T05:49:02.012Z,5.53
2016-12-23T05:50:01.369Z,5.55
2016-12-23T05:51:01.655Z,5.56
2016-12-23T05:52:01.329Z,5.59
2016-12-23T05:53:01.622Z,5.53
2016-12-23T05:54:01.289Z,5.59
2016-12-23T05:55:01.265Z,5.57
2016-12-23T05:56:01.560Z,5.63
2016-12-23T05:57:01.242Z,5.63
2016-12-23T05:58:01.221Z,5.56
2016-12-23T05:59:01.817Z,5.56
2016-12-23T06:00:01.177Z,5.57
2016-12-23T06:01:01.151Z,5.59
2016-12-23T06:02:01.185Z,5.6
2016-12-23T06:03:01.121Z,5.52
2016-12-23T06:04:01.092Z,5.59
2016-12-23T06:05:01.074Z,5.55
2016-12-23T06:06:01.056Z,5.53
2016-12-23T06:07:01.344Z,5.57
2016-12-23T06:08:01.020Z,5.63
2016-12-23T06:09:00.993Z,5.66
2016-12-23T06:10:00.977Z,5.53
2016-12-23T06:11:00.983Z,5.66
2016-12-23T06:12:00.933Z,5.64
2016-12-23T06:13:00.917Z,5.59
2016-12-23T06:14:00.896Z,5.63
2016-12-23T06:15:00.875Z,5.63
2016-12-23T06:16:00.860Z,5.59
2016-12-23T06:17:01.459Z,5.6
2016-12-23T06:18:00.818Z,5.6
2016-12-23T06:19:00.796Z,5.6
2016-12-23T06:20:00.775Z,5.63
2016-12-23T06:21:00.759Z,5.57
2016-12-23T06:22:00.741Z,5.71
2016-12-23T06:23:00.716Z,5.71
2016-12-23T06:24:00.700Z,5.66
2016-12-23T06:25:00.678Z,5.75
2016-12-23T06:26:00.662Z,5.73
2016-12-23T06:27:01.047Z,5.68
2016-12-23T06:28:00.628Z,5.63
2016-12-23T06:29:00.622Z,5.73
2016-12-23T06:30:00.791Z,5.71
2016-12-23T06:31:00.566Z,5.71
2016-12-23T06:32:00.587Z,5.77
2016-12-23T06:33:00.522Z,5.83
2016-12-23T06:34:00.816Z,5.77
2016-12-23T06:35:00.481Z,5.75
2016-12-23T06:36:00.778Z,5.83
2016-12-23T06:37:00.439Z,5.78
2016-12-23T06:38:00.432Z,5.77
2016-12-23T06:39:00.715Z,5.77
2016-12-23T06:40:00.700Z,5.83
2016-12-23T06:41:00.364Z,5.74
2016-12-23T06:42:00.346Z,5.77
2016-12-23T06:43:00.332Z,5.82
2016-12-23T06:44:00.306Z,5.75
2016-12-23T06:45:00.596Z,5.77
2016-12-23T06:46:00.268Z,5.74
2016-12-23T06:47:00.253Z,5.77
2016-12-23T06:48:00.227Z,5.74
2016-12-23T06:49:00.213Z,5.75
2016-12-23T06:50:00.194Z,5.78
2016-12-23T06:51:00.177Z,5.77
2016-12-23T06:52:00.201Z,5.82
2016-12-23T06:53:00.153Z,5.85
2016-12-23T06:54:00.113Z,5.74
2016-12-23T06:55:00.090Z,5.81
2016-12-23T06:56:00.072Z,5.74
2016-12-23T06:57:00.054Z,5.77
2016-12-23T06:58:00.037Z,5.74
2016-12-23T06:59:00.029Z,5.71
2016-12-23T07:00:00.003Z,5.68
2016-12-23T07:00:59.975Z,5.6
2016-12-23T07:01:59.954Z,5.67
2016-12-23T07:02:59.946Z,5.64
2016-12-23T07:03:59.922Z,5.57
2016-12-23T07:05:00.208Z,5.57
2016-12-23T07:05:59.882Z,5.6
2016-12-23T07:06:59.883Z,5.5
2016-12-23T07:08:00.149Z,5.53
2016-12-23T07:08:59.822Z,5.6
2016-12-23T07:09:59.796Z,5.6
2016-12-23T07:10:59.783Z,5.59
2016-12-23T07:11:59.757Z,5.6
2016-12-23T07:12:59.743Z,5.53
2016-12-23T07:13:59.727Z,5.56
2016-12-23T07:14:59.700Z,5.56
2016-12-23T07:15:59.680Z,5.48
2016-12-23T07:16:59.665Z,5.55
2016-12-23T07:17:59.651Z,5.41
2016-12-23T07:18:59.624Z,5.49
2016-12-23T07:19:59.600Z,5.5
2016-12-23T07:20:59.584Z,5.5
2016-12-23T07:21:59.564Z,5.63
2016-12-23T07:22:59.545Z,5.52
2016-12-23T07:23:59.843Z,5.57
2016-12-23T07:24:59.505Z,5.49
2016-12-23T07:25:59.487Z,5.43
2016-12-23T07:26:59.467Z,5.53
2016-12-23T07:27:59.892Z,5.52
2016-12-23T07:28:59.757Z,5.49
2016-12-23T07:30:00.069Z,5.48
2016-12-23T07:30:59.702Z,5.64
2016-12-23T07:31:59.370Z,5.53
2016-12-23T07:32:59.351Z,5.55
2016-12-23T07:33:59.333Z,5.53
2016-12-23T07:34:59.311Z,5.6
2016-12-23T07:35:59.605Z,5.6
2016-12-23T07:36:59.284Z,5.6
2016-12-23T07:37:59.276Z,5.71
2016-12-23T07:38:59.233Z,5.63
2016-12-23T07:39:59.212Z,5.71
2016-12-23T07:40:59.193Z,5.77
2016-12-23T07:41:59.481Z,5.59
2016-12-23T07:42:59.152Z,5.63
2016-12-23T07:43:59.139Z,5.67
2016-12-23T07:44:59.355Z,5.7
2016-12-23T07:45:59.095Z,5.7
2016-12-23T07:46:59.071Z,5.67
2016-12-23T07:47:59.370Z,5.75
2016-12-23T07:48:59.034Z,5.7
2016-12-23T07:49:59.017Z,5.73
2016-12-23T07:50:59.002Z,5.77
2016-12-23T07:51:58.986Z,5.82
2016-12-23T07:52:58.963Z,5.78
2016-12-23T07:53:58.943Z,5.83
2016-12-23T07:54:59.231Z,5.82
2016-12-23T07:55:58.909Z,5.81
2016-12-23T07:56:58.884Z,5.82
2016-12-23T07:57:58.858Z,5.86
2016-12-23T07:58:58.843Z,5.78
2016-12-23T07:59:58.833Z,5.86
2016-12-23T08:00:58.798Z,5.92
2016-12-23T08:01:59.414Z,5.89
2016-12-23T08:02:58.763Z,5.92
2016-12-23T08:03:59.056Z,5.93
2016-12-23T08:04:58.964Z,5.93
2016-12-23T08:05:58.705Z,5.86
2016-12-23T08:06:58.682Z,5.93
2016-12-23T08:07:58.716Z,5.96
2016-12-23T08:08:58.643Z,5.89
2016-12-23T08:09:58.938Z,5.92
2016-12-23T08:10:58.628Z,5.95
2016-12-23T08:11:58.585Z,6
2016-12-23T08:12:58.571Z,6.04
2016-12-23T08:13:58.548Z,6.09
2016-12-23T08:14:58.527Z,6.07
2016-12-23T08:15:58.511Z,6.11
2016-12-23T08:16:58.493Z,6.07
2016-12-23T08:17:58.538Z,6.1
2016-12-23T08:18:58.487Z,6.1
2016-12-23T08:19:58.435Z,6.14
2016-12-23T08:20:58.754Z,6.26
2016-12-23T08:21:58.393Z,6.21
2016-12-23T08:22:58.686Z,6.28
2016-12-23T08:23:58.359Z,6.32
2016-12-23T08:24:58.683Z,6.29
2016-12-23T08:25:58.321Z,6.29
2016-12-23T08:26:58.299Z,6.4
2016-12-23T08:27:58.289Z,6.41
2016-12-23T08:28:58.260Z,6.35
2016-12-23T08:29:58.577Z,6.36
2016-12-23T08:30:58.232Z,6.33
2016-12-23T08:31:58.206Z,6.33
2016-12-23T08:32:58.499Z,6.36
2016-12-23T08:33:58.165Z,6.46
2016-12-23T08:34:58.145Z,6.47
2016-12-23T08:35:58.152Z,6.48
2016-12-23T08:36:58.107Z,6.46
2016-12-23T08:37:58.100Z,6.46
2016-12-23T08:38:58.070Z,6.58
2016-12-23T08:39:58.364Z,6.54
2016-12-23T08:40:58.345Z,6.5
2016-12-23T08:41:58.018Z,6.54
2016-12-23T08:42:57.994Z,6.61
2016-12-23T08:43:57.979Z,6.53
2016-12-23T08:44:58.271Z,6.53
2016-12-23T08:45:57.937Z,6.56
2016-12-23T08:46:57.924Z,6.61
2016-12-23T08:47:57.902Z,6.68
2016-12-23T08:48:58.195Z,6.63
2016-12-23T08:49:58.199Z,6.62
2016-12-23T08:50:57.863Z,6.56
2016-12-23T08:51:57.836Z,6.62
2016-12-23T08:52:57.808Z,6.72
2016-12-23T08:53:57.784Z,6.62
2016-12-23T08:54:58.086Z,6.66
2016-12-23T08:55:57.751Z,6.66
2016-12-23T08:56:57.732Z,6.73
2016-12-23T08:57:57.720Z,6.76
2016-12-23T08:58:57.696Z,6.68
2016-12-23T08:59:57.676Z,6.76
2016-12-23T09:00:58.001Z,6.69
2016-12-23T09:01:57.644Z,6.71
2016-12-23T09:02:57.622Z,6.72
2016-12-23T09:03:57.609Z,6.72
2016-12-23T09:04:57.584Z,6.76
2016-12-23T09:05:57.567Z,6.77
2016-12-23T09:06:57.552Z,6.72
2016-12-23T09:07:57.839Z,6.77
2016-12-23T09:08:57.512Z,6.84
2016-12-23T09:09:57.518Z,6.91
2016-12-23T09:10:57.474Z,6.9
2016-12-23T09:11:57.454Z,6.95
2016-12-23T09:12:57.438Z,7.02
2016-12-23T09:13:57.419Z,6.95
2016-12-23T09:14:57.404Z,7.02
2016-12-23T09:15:57.381Z,6.99
2016-12-23T09:16:57.688Z,7.02
2016-12-23T09:17:57.346Z,7.01
2016-12-23T09:18:57.326Z,7.13
2016-12-23T09:19:57.304Z,7.08
2016-12-23T09:20:57.600Z,7.16
2016-12-23T09:21:57.276Z,7.16
2016-12-23T09:22:57.256Z,7.15
2016-12-23T09:23:57.242Z,7.29
2016-12-23T09:24:57.527Z,7.26
2016-12-23T09:25:57.203Z,7.24
2016-12-23T09:26:57.504Z,7.31
2016-12-23T09:27:57.169Z,7.31
2016-12-23T09:28:57.150Z,7.24
2016-12-23T09:29:57.127Z,7.24
2016-12-23T09:30:57.113Z,7.37
2016-12-23T09:31:57.089Z,7.34
2016-12-23T09:32:57.389Z,7.32
2016-12-23T09:33:57.058Z,7.29
2016-12-23T09:34:57.041Z,7.35
2016-12-23T09:35:57.016Z,7.38
2016-12-23T09:36:57.035Z,7.42
2016-12-23T09:37:56.985Z,7.47
2016-12-23T09:38:56.963Z,7.5
2016-12-23T09:39:56.948Z,7.58
2016-12-23T09:40:56.930Z,7.67
2016-12-23T09:41:57.227Z,7.67
2016-12-23T09:42:56.893Z,7.71
2016-12-23T09:43:57.193Z,7.75
2016-12-23T09:44:56.857Z,7.77
2016-12-23T09:45:56.848Z,7.63
2016-12-23T09:46:56.826Z,7.69
2016-12-23T09:47:56.808Z,7.66
2016-12-23T09:48:56.790Z,7.74
2016-12-23T09:49:56.775Z,7.74
2016-12-23T09:50:57.069Z,7.66
2016-12-23T09:51:56.740Z,7.67
2016-12-23T09:52:56.719Z,7.81
2016-12-23T09:53:56.700Z,7.78
2016-12-23T09:54:56.686Z,7.77
2016-12-23T09:55:56.660Z,7.77
2016-12-23T09:56:56.646Z,7.79
2016-12-23T09:57:56.630Z,7.79
2016-12-23T09:58:56.609Z,7.93
2016-12-23T09:59:56.597Z,7.84
2016-12-23T10:00:56.576Z,7.93
2016-12-23T10:01:56.564Z,7.94
2016-12-23T10:02:56.862Z,8.02
2016-12-23T10:03:56.526Z,8.02
2016-12-23T10:04:56.510Z,8.21
2016-12-23T10:05:56.493Z,8.2
2016-12-23T10:06:56.791Z,8.21
2016-12-23T10:07:56.772Z,8.36
2016-12-23T10:08:56.446Z,8.55
2016-12-23T10:09:56.745Z,8.47
2016-12-23T10:10:56.448Z,8.48
2016-12-23T10:11:57.028Z,8.32
2016-12-23T10:12:56.704Z,8.35
2016-12-23T10:13:56.361Z,8.21
2016-12-23T10:14:56.343Z,8.29
2016-12-23T10:15:56.633Z,8.26
2016-12-23T10:16:56.619Z,8.33
2016-12-23T10:17:56.291Z,8.2
2016-12-23T10:18:56.283Z,8.3
2016-12-23T10:19:56.258Z,8.32
2016-12-23T10:20:56.241Z,8.72
2016-12-23T10:21:56.226Z,9.25
2016-12-23T10:22:56.210Z,9.57
2016-12-23T10:23:56.197Z,9.81
2016-12-23T10:24:56.176Z,9.79
2016-12-23T10:25:56.168Z,9.75
2016-12-23T10:26:56.149Z,9.57
2016-12-23T10:27:56.126Z,9.42
2016-12-23T10:28:56.144Z,9.04
2016-12-23T10:29:56.414Z,8.96
2016-12-23T10:30:56.289Z,8.9
2016-12-23T10:31:56.068Z,8.83
2016-12-23T10:32:56.366Z,8.83
2016-12-23T10:33:56.041Z,8.73
2016-12-23T10:34:56.019Z,8.69
2016-12-23T10:35:56.010Z,8.68
2016-12-23T10:36:55.994Z,8.76
2016-12-23T10:37:55.977Z,8.65
2016-12-23T10:38:55.956Z,8.65
2016-12-23T10:39:55.945Z,8.55
2016-12-23T10:40:56.243Z,8.63
2016-12-23T10:41:55.914Z,8.68
2016-12-23T10:42:55.928Z,8.58
2016-12-23T10:43:55.882Z,8.6
2016-12-23T10:44:55.884Z,8.55
2016-12-23T10:45:55.861Z,8.57
2016-12-23T10:46:55.838Z,8.87
2016-12-23T10:47:55.878Z,8.87
2016-12-23T10:48:55.825Z,9.06
2016-12-23T10:49:56.100Z,9.27
2016-12-23T10:50:55.793Z,9.24
2016-12-23T10:51:55.791Z,9.31
2016-12-23T10:52:55.746Z,9.21
2016-12-23T10:53:55.732Z,9.2
2016-12-23T10:54:55.710Z,9.28
2016-12-23T10:55:55.696Z,9.43
2016-12-23T10:56:55.996Z,9.39
2016-12-23T10:57:55.976Z,9.66
2016-12-23T10:58:55.657Z,9.86
2016-12-23T10:59:55.691Z,9.99
2016-12-23T11:00:55.933Z,9.91
2016-12-23T11:01:55.613Z,9.94
2016-12-23T11:02:55.591Z,10.01
2016-12-23T11:03:55.575Z,9.99
2016-12-23T11:04:55.565Z,10.01
2016-12-23T11:05:55.548Z,9.83
2016-12-23T11:06:55.533Z,9.83
2016-12-23T11:07:55.836Z,9.57
2016-12-23T11:08:55.518Z,9.42
2016-12-23T11:09:55.500Z,9.25
2016-12-23T11:10:55.809Z,9.13
2016-12-23T11:11:55.794Z,9.1
2016-12-23T11:12:55.797Z,9.12
2016-12-23T11:13:55.465Z,9.12
2016-12-23T11:14:55.733Z,9.16
2016-12-23T11:15:55.611Z,9.2
2016-12-23T11:16:55.402Z,9.21
2016-12-23T11:17:55.376Z,9.2
2016-12-23T11:18:55.363Z,9.2
2016-12-23T11:19:55.342Z,9.15
2016-12-23T11:20:55.333Z,9.12
2016-12-23T11:21:55.324Z,8.94
2016-12-23T11:22:55.635Z,8.93
2016-12-23T11:23:55.307Z,9.04
2016-12-23T11:24:55.311Z,9.06
2016-12-23T11:25:55.260Z,9.18
2016-12-23T11:26:55.251Z,9.42
2016-12-23T11:27:55.224Z,9.39
2016-12-23T11:28:55.210Z,9.35
2016-12-23T11:29:55.205Z,9.34
2016-12-23T11:30:55.504Z,9.34
2016-12-23T11:31:55.183Z,9.27
2016-12-23T11:32:55.477Z,9.32
2016-12-23T11:33:55.192Z,9.27
2016-12-23T11:34:55.120Z,9.28
2016-12-23T11:35:55.834Z,9.42
2016-12-23T11:36:55.125Z,9.39
2016-12-23T11:37:55.076Z,9.39
2016-12-23T11:38:55.401Z,9.42
2016-12-23T11:39:55.080Z,9.35
2016-12-23T11:40:55.349Z,9.43
2016-12-23T11:41:55.329Z,9.43
2016-12-23T11:42:55.000Z,9.56
2016-12-23T11:43:54.985Z,9.6
2016-12-23T11:44:55.285Z,9.67
2016-12-23T11:45:54.959Z,9.64
2016-12-23T11:46:54.938Z,9.63
2016-12-23T11:47:55.237Z,9.53
2016-12-23T11:48:55.229Z,9.58
2016-12-23T11:49:54.895Z,9.56
2016-12-23T11:50:54.877Z,9.5
2016-12-23T11:51:54.869Z,9.43
2016-12-23T11:52:54.848Z,9.4
2016-12-23T11:53:54.839Z,9.45
2016-12-23T11:54:54.823Z,9.48
2016-12-23T11:55:55.116Z,9.63
2016-12-23T11:56:54.789Z,9.66
2016-12-23T11:57:54.775Z,9.73
2016-12-23T11:58:54.764Z,9.73
2016-12-23T11:59:54.750Z,9.73
2016-12-23T12:00:54.733Z,9.7
2016-12-23T12:01:55.039Z,9.85
2016-12-23T12:02:54.702Z,9.81
2016-12-23T12:03:54.688Z,9.91
2016-12-23T12:04:54.675Z,9.94
2016-12-23T12:05:54.980Z,9.93
2016-12-23T12:06:54.650Z,9.94
2016-12-23T12:07:54.633Z,9.86
2016-12-23T12:08:54.618Z,9.96
2016-12-23T12:09:54.595Z,9.88
2016-12-23T12:10:54.585Z,9.89
2016-12-23T12:11:54.580Z,9.96
2016-12-23T12:12:54.562Z,9.96
2016-12-23T12:13:54.869Z,9.97
2016-12-23T12:14:54.526Z,9.91
2016-12-23T12:15:54.515Z,9.91
2016-12-23T12:16:54.504Z,9.82
2016-12-23T12:17:54.792Z,9.75
2016-12-23T12:18:54.471Z,9.58
2016-12-23T12:19:54.460Z,9.57
2016-12-23T12:20:54.758Z,9.58
2016-12-23T12:21:55.057Z,9.56
2016-12-23T12:22:54.411Z,9.53
2016-12-23T12:23:54.395Z,9.52
2016-12-23T12:24:54.712Z,9.52
2016-12-23T12:25:54.368Z,9.48
2016-12-23T12:26:54.359Z,9.39
2016-12-23T12:27:54.339Z,9.34
2016-12-23T12:28:54.325Z,9.38
2016-12-23T12:29:55.095Z,9.34
2016-12-23T12:30:54.521Z,9.34
2016-12-23T12:31:54.592Z,9.27
2016-12-23T12:32:54.263Z,9.31
2016-12-23T12:33:54.874Z,9.31
2016-12-23T12:34:54.232Z,9.32
2016-12-23T12:35:54.215Z,9.25
2016-12-23T12:36:54.202Z,9.27
2016-12-23T12:37:54.183Z,9.27
2016-12-23T12:38:54.170Z,9.27
2016-12-23T12:39:54.151Z,9.24
2016-12-23T12:40:54.136Z,9.28
2016-12-23T12:41:54.119Z,9.32
2016-12-23T12:42:54.108Z,9.25
2016-12-23T12:43:54.088Z,9.27
2016-12-23T12:44:54.074Z,9.31
2016-12-23T12:45:54.058Z,9.27
2016-12-23T12:46:54.360Z,9.28
2016-12-23T12:47:54.025Z,9.28
2016-12-23T12:48:54.326Z,9.34
2016-12-23T12:49:54.307Z,9.23
2016-12-23T12:50:54.290Z,9.3
2016-12-23T12:51:53.965Z,9.28
2016-12-23T12:52:53.946Z,9.3
2016-12-23T12:53:53.930Z,9.31
2016-12-23T12:54:53.927Z,9.28
2016-12-23T12:55:53.908Z,9.34
2016-12-23T12:56:53.880Z,9.38
2016-12-23T12:57:53.876Z,9.28
2016-12-23T12:58:53.854Z,9.31
2016-12-23T12:59:54.468Z,9.27
2016-12-23T13:00:53.818Z,9.3
2016-12-23T13:01:53.809Z,9.28
2016-12-23T13:02:53.792Z,9.34
2016-12-23T13:03:53.773Z,9.34
2016-12-23T13:04:53.754Z,9.4
2016-12-23T13:05:54.052Z,9.42
2016-12-23T13:06:54.041Z,9.38
2016-12-23T13:07:53.718Z,9.45
2016-12-23T13:08:53.694Z,9.38
2016-12-23T13:09:53.679Z,9.42
2016-12-23T13:10:53.661Z,9.43
2016-12-23T13:11:53.644Z,9.35
2016-12-23T13:12:53.628Z,9.27
2016-12-23T13:13:53.614Z,9.4
2016-12-23T13:14:53.911Z,9.4
2016-12-23T13:15:53.580Z,9.32
2016-12-23T13:16:53.883Z,9.32
2016-12-23T13:17:53.599Z,9.39
2016-12-23T13:18:53.863Z,9.38
2016-12-23T13:19:53.527Z,9.39